createdAt,value
2023-01-07T00:01:41.988Z,42.20
2023-01-07T00:04:12.593Z,40.65
2023-01-07T00:06:41.719Z,39.25
2023-01-07T00:09:14.172Z,38.00
2023-01-07T00:11:42.337Z,39.70
2023-01-07T00:14:12.264Z,35.50
2023-01-07T00:16:40.494Z,37.20
2023-01-07T00:19:10.201Z,41.63
2023-01-07T00:21:37.588Z,37.97
2023-01-07T00:24:06.366Z,33.65
2023-01-07T00:26:35.643Z,33.45
2023-01-07T00:29:04.283Z,31.95
2023-01-07T00:31:34.202Z,33.10
2023-01-07T00:34:01.987Z,33.33
2023-01-07T00:36:31.997Z,32.58
2023-01-07T00:39:15.599Z,33.88
2023-01-07T00:42:06.923Z,30.92
2023-01-07T00:44:34.449Z,34.38
2023-01-07T00:47:02.189Z,34.40
2023-01-07T00:49:29.711Z,34.80
2023-01-07T00:51:57.071Z,33.42
2023-01-07T00:54:25.533Z,32.33
2023-01-07T00:56:52.925Z,34.13
2023-01-07T00:59:20.697Z,33.00
2023-01-07T01:01:48.218Z,33.90
2023-01-07T01:04:16.707Z,34.13
2023-01-07T01:06:44.102Z,32.45
2023-01-07T01:09:12.265Z,30.67
2023-01-07T01:11:39.664Z,32.88
2023-01-07T01:14:07.134Z,31.38
2023-01-07T01:16:34.614Z,31.45
2023-01-07T01:19:02.028Z,29.42
2023-01-07T01:21:29.419Z,33.15
2023-01-07T01:23:56.791Z,30.20
2023-01-07T01:26:24.146Z,29.88
2023-01-07T01:28:51.510Z,28.30
2023-01-07T01:31:23.529Z,28.40
2023-01-07T01:33:56.819Z,27.77
2023-01-07T01:36:25.194Z,29.67
2023-01-07T01:38:55.148Z,29.92
2023-01-07T01:41:22.947Z,27.48
2023-01-07T01:43:53.400Z,28.48
2023-01-07T01:46:47.203Z,28.42
2023-01-07T01:49:25.138Z,29.17
2023-01-07T01:52:11.818Z,29.25
2023-01-07T01:54:42.840Z,28.92
2023-01-07T01:57:10.463Z,28.80
2023-01-07T01:59:43.651Z,29.88
2023-01-07T02:02:16.974Z,28.17
2023-01-07T02:04:44.615Z,30.38
2023-01-07T02:07:16.447Z,29.00
2023-01-07T02:10:00.277Z,31.45
2023-01-07T02:12:57.956Z,30.98
2023-01-07T02:15:54.119Z,29.27
2023-01-07T02:18:39.455Z,30.77
2023-01-07T02:21:36.940Z,31.48
2023-01-07T02:24:33.879Z,30.70
2023-01-07T02:27:25.087Z,30.58
2023-01-07T02:30:12.120Z,31.08
2023-01-07T02:32:58.062Z,30.58
2023-01-07T02:35:42.674Z,30.67
2023-01-07T02:38:40.998Z,30.40
2023-01-07T02:41:32.014Z,30.50
2023-01-07T02:44:22.198Z,30.70
2023-01-07T02:46:57.155Z,34.08
2023-01-07T02:49:24.580Z,31.08
2023-01-07T02:51:52.483Z,31.55
2023-01-07T02:54:23.819Z,33.22
2023-01-07T02:57:25.531Z,31.52
2023-01-07T02:59:55.926Z,30.02
2023-01-07T03:02:49.632Z,31.13
2023-01-07T03:05:49.467Z,32.47
2023-01-07T03:08:34.924Z,33.33
2023-01-07T03:11:05.273Z,30.60
2023-01-07T03:13:41.155Z,32.15
2023-01-07T03:16:29.377Z,31.13
2023-01-07T03:19:03.922Z,32.55
2023-01-07T03:21:34.875Z,32.95
2023-01-07T03:24:02.879Z,33.92
2023-01-07T03:26:32.934Z,32.13
2023-01-07T03:29:02.801Z,32.58
2023-01-07T03:31:32.157Z,31.92
2023-01-07T03:34:01.587Z,33.03
2023-01-07T03:36:34.192Z,31.30
2023-01-07T03:39:02.619Z,34.40
2023-01-07T03:41:49.759Z,33.00
2023-01-07T03:44:17.171Z,32.83
2023-01-07T03:46:44.747Z,31.35
2023-01-07T03:49:12.194Z,32.58
2023-01-07T03:51:39.694Z,34.83
2023-01-07T03:54:07.132Z,35.20
2023-01-07T03:56:34.517Z,33.22
2023-01-07T03:59:01.896Z,33.85
2023-01-07T04:01:30.674Z,32.58
2023-01-07T04:03:58.590Z,33.72
2023-01-07T04:06:26.108Z,32.15
2023-01-07T04:08:57.075Z,32.03
2023-01-07T04:11:24.687Z,34.63
2023-01-07T04:13:52.103Z,34.60
2023-01-07T04:16:19.615Z,33.28
2023-01-07T04:18:47.031Z,31.63
2023-01-07T04:21:14.440Z,33.22
2023-01-07T04:23:42.003Z,34.03
2023-01-07T04:26:10.782Z,33.78
2023-01-07T04:28:40.021Z,34.85
2023-01-07T04:31:07.904Z,35.17
2023-01-07T04:33:36.894Z,33.13
2023-01-07T04:36:05.068Z,33.33
2023-01-07T04:38:32.625Z,33.60
2023-01-07T04:41:00.046Z,33.92
2023-01-07T04:43:27.484Z,33.38
2023-01-07T04:45:55.120Z,32.28
2023-01-07T04:48:22.596Z,33.63
2023-01-07T04:50:53.418Z,33.95
2023-01-07T04:53:20.888Z,34.67
2023-01-07T04:55:49.602Z,35.45
2023-01-07T04:58:18.123Z,35.28
2023-01-07T05:00:46.594Z,34.55
2023-01-07T05:03:14.407Z,33.05
2023-01-07T05:05:41.850Z,34.72
2023-01-07T05:08:09.624Z,33.65
2023-01-07T05:10:37.210Z,34.35
2023-01-07T05:13:07.077Z,34.45
2023-01-07T05:15:35.373Z,35.72
2023-01-07T05:18:02.992Z,34.25
2023-01-07T05:20:30.422Z,36.22
2023-01-07T05:22:59.295Z,37.72
2023-01-07T05:25:26.732Z,37.70
2023-01-07T05:27:54.211Z,36.40
2023-01-07T05:30:24.259Z,36.63
2023-01-07T05:32:51.800Z,36.35
2023-01-07T05:35:19.279Z,36.63
2023-01-07T05:37:46.694Z,36.00
2023-01-07T05:40:15.248Z,38.55
2023-01-07T05:42:43.805Z,40.42
2023-01-07T05:45:11.893Z,38.78
2023-01-07T05:47:39.358Z,38.00
2023-01-07T05:50:07.136Z,41.97
2023-01-07T05:52:34.544Z,41.85
2023-01-07T05:55:01.935Z,40.75
2023-01-07T05:57:29.298Z,42.97
2023-01-07T05:59:56.694Z,42.60
2023-01-07T06:02:24.298Z,43.85
2023-01-07T06:04:51.849Z,42.70
2023-01-07T06:07:19.240Z,43.63
2023-01-07T06:09:46.631Z,42.38
2023-01-07T06:12:13.968Z,43.60
2023-01-07T06:14:43.659Z,44.60
2023-01-07T06:17:11.713Z,46.05
2023-01-07T06:19:39.146Z,46.08
2023-01-07T06:22:06.771Z,44.75
2023-01-07T06:24:34.164Z,42.67
2023-01-07T06:27:01.529Z,44.65
2023-01-07T06:29:28.904Z,44.92
2023-01-07T06:31:56.281Z,44.13
2023-01-07T06:34:23.671Z,44.00
2023-01-07T06:36:51.052Z,43.80
2023-01-07T06:39:18.402Z,49.28
2023-01-07T06:41:45.827Z,52.85
2023-01-07T06:44:13.249Z,53.35
2023-01-07T06:46:40.817Z,49.78
2023-01-07T06:49:08.225Z,45.53
2023-01-07T06:51:35.954Z,43.45
2023-01-07T06:54:03.475Z,45.80
2023-01-07T06:56:30.892Z,44.45
2023-01-07T06:58:58.251Z,45.97
2023-01-07T07:01:25.881Z,44.63
2023-01-07T07:03:53.433Z,42.17
2023-01-07T07:06:20.825Z,44.40
2023-01-07T07:08:48.210Z,42.05
2023-01-07T07:11:15.649Z,42.67
2023-01-07T07:13:43.023Z,40.03
2023-01-07T07:16:10.516Z,44.53
2023-01-07T07:18:37.880Z,39.08
2023-01-07T07:21:05.404Z,42.70
2023-01-07T07:23:32.773Z,41.78
2023-01-07T07:26:00.251Z,43.40
2023-01-07T07:28:27.617Z,42.28
2023-01-07T07:30:55.964Z,44.33
2023-01-07T07:33:23.370Z,45.47
2023-01-07T07:35:50.743Z,41.65
2023-01-07T07:38:19.057Z,43.40
2023-01-07T07:40:47.102Z,42.63
2023-01-07T07:43:15.692Z,43.38
2023-01-07T07:45:43.492Z,41.85
2023-01-07T07:48:13.286Z,42.63
2023-01-07T07:50:40.728Z,42.65
2023-01-07T07:53:10.329Z,40.28
2023-01-07T07:55:38.682Z,44.75
2023-01-07T07:58:06.891Z,42.75
2023-01-07T08:00:34.333Z,43.25
2023-01-07T08:03:02.183Z,41.85
2023-01-07T08:05:30.185Z,40.50
2023-01-07T08:07:58.326Z,41.53
2023-01-07T08:10:27.744Z,42.08
2023-01-07T08:12:55.088Z,41.03
2023-01-07T08:15:22.497Z,41.47
2023-01-07T08:18:00.675Z,42.33
2023-01-07T08:20:28.593Z,41.42
2023-01-07T08:22:59.209Z,41.33
2023-01-07T08:25:27.729Z,39.97
2023-01-07T08:27:55.861Z,40.90
2023-01-07T08:30:25.898Z,41.50
2023-01-07T08:32:53.788Z,38.60
2023-01-07T08:35:21.678Z,40.67
2023-01-07T08:37:50.048Z,40.38
2023-01-07T08:40:17.509Z,40.70
2023-01-07T08:42:44.977Z,41.17
2023-01-07T08:45:12.744Z,42.80
2023-01-07T08:47:40.174Z,38.05
2023-01-07T08:50:08.175Z,39.42
2023-01-07T08:52:35.645Z,37.88
2023-01-07T08:55:03.072Z,35.90
2023-01-07T08:57:30.519Z,32.47
2023-01-07T08:59:57.892Z,32.60
2023-01-07T09:02:25.289Z,31.13
2023-01-07T09:04:52.719Z,31.98
2023-01-07T09:07:20.212Z,29.10
2023-01-07T09:09:47.737Z,28.88
2023-01-07T09:12:15.131Z,30.17
2023-01-07T09:14:42.578Z,27.80
2023-01-07T09:17:09.992Z,28.35
2023-01-07T09:19:37.363Z,27.30
2023-01-07T09:22:04.781Z,25.83
2023-01-07T09:24:32.206Z,25.70
2023-01-07T09:26:59.664Z,24.83
2023-01-07T09:29:27.045Z,25.15
2023-01-07T09:31:54.526Z,25.25
2023-01-07T09:34:21.968Z,27.08
2023-01-07T09:36:49.360Z,23.95
2023-01-07T09:39:16.767Z,26.38
2023-01-07T09:42:09.081Z,24.60
2023-01-07T09:44:48.231Z,23.98
2023-01-07T09:47:19.350Z,25.65
2023-01-07T09:49:50.892Z,26.73
2023-01-07T09:52:23.823Z,24.65
2023-01-07T09:54:57.368Z,24.23
2023-01-07T09:57:26.345Z,25.77
2023-01-07T09:59:54.239Z,26.30
2023-01-07T10:02:30.507Z,23.55
2023-01-07T10:05:22.431Z,23.38
2023-01-07T10:08:31.503Z,25.35
2023-01-07T10:11:03.684Z,22.75
2023-01-07T10:14:09.240Z,22.13
2023-01-07T10:16:42.670Z,22.02
2023-01-07T10:19:34.756Z,22.98
2023-01-07T10:22:23.854Z,22.95
2023-01-07T10:24:57.412Z,22.70
2023-01-07T10:27:33.192Z,22.08
2023-01-07T10:30:10.787Z,21.15
2023-01-07T10:32:38.500Z,20.27
2023-01-07T10:35:19.227Z,21.70
2023-01-07T10:37:46.917Z,21.95
2023-01-07T10:40:29.395Z,21.60
2023-01-07T10:45:43.873Z,20.67
2023-01-07T10:48:29.828Z,21.98
2023-01-07T10:51:15.723Z,20.70
2023-01-07T10:53:54.746Z,19.92
2023-01-07T10:56:30.254Z,22.58
2023-01-07T10:58:58.030Z,22.20
2023-01-07T11:01:38.996Z,22.90
2023-01-07T11:04:15.172Z,22.17
2023-01-07T11:07:04.601Z,21.75
2023-01-07T11:09:39.517Z,20.88
2023-01-07T11:12:25.138Z,21.13
2023-01-07T11:14:55.112Z,20.27
2023-01-07T11:17:46.184Z,21.48
2023-01-07T11:20:13.759Z,19.80
2023-01-07T11:22:41.232Z,20.27
2023-01-07T11:25:29.156Z,20.98
2023-01-07T11:28:03.269Z,21.00
2023-01-07T11:30:33.926Z,20.45
2023-01-07T11:33:06.535Z,20.30
2023-01-07T11:35:34.881Z,20.83
2023-01-07T11:38:02.307Z,22.55
2023-01-07T11:40:32.588Z,20.55
2023-01-07T11:43:02.361Z,23.77
2023-01-07T11:46:20.097Z,23.50
2023-01-07T11:48:46.580Z,21.75
2023-01-07T11:51:13.972Z,20.33
2023-01-07T11:53:53.439Z,21.30
2023-01-07T11:56:20.769Z,21.60
2023-01-07T11:58:50.948Z,20.63
2023-01-07T12:01:23.335Z,20.02
2023-01-07T12:03:53.791Z,21.02
2023-01-07T12:06:31.190Z,20.90
2023-01-07T12:09:13.721Z,20.20
2023-01-07T12:11:42.991Z,21.52
2023-01-07T12:14:16.744Z,26.50
2023-01-07T12:16:45.716Z,21.05
2023-01-07T12:20:01.432Z,20.27
2023-01-07T12:22:43.283Z,21.23
2023-01-07T12:25:38.999Z,21.30
2023-01-07T12:28:16.673Z,21.42
2023-01-07T12:31:28.829Z,22.90
2023-01-07T12:34:27.456Z,21.70
2023-01-07T12:37:24.438Z,20.75
2023-01-07T12:39:57.062Z,18.65
2023-01-07T12:42:30.203Z,20.67
2023-01-07T12:45:05.388Z,20.50
2023-01-07T12:47:50.635Z,21.48
2023-01-07T12:50:38.709Z,21.10
2023-01-07T12:53:23.427Z,20.58
2023-01-07T12:55:56.913Z,23.23
2023-01-07T12:58:44.801Z,21.80
2023-01-07T13:01:25.802Z,22.02
2023-01-07T13:04:13.856Z,19.65
2023-01-07T13:06:53.327Z,20.38
2023-01-07T13:09:26.872Z,21.95
2023-01-07T13:12:40.858Z,21.67
2023-01-07T13:15:31.230Z,19.45
2023-01-07T13:18:06.050Z,22.20
2023-01-07T13:20:48.644Z,22.45
2023-01-07T13:23:22.939Z,21.70
2023-01-07T13:25:53.276Z,21.40
2023-01-07T13:29:08.067Z,21.95
2023-01-07T13:31:58.824Z,22.08
2023-01-07T13:34:40.720Z,23.00
2023-01-07T13:37:23.317Z,23.75
2023-01-07T13:40:47.916Z,24.02
2023-01-07T13:43:30.870Z,22.45
2023-01-07T13:46:05.414Z,23.60
2023-01-07T13:48:34.771Z,23.40
2023-01-07T13:51:07.411Z,22.45
2023-01-07T13:53:39.878Z,23.45
2023-01-07T13:56:19.454Z,22.25
2023-01-07T13:58:55.588Z,22.52
2023-01-07T14:01:24.723Z,24.33
2023-01-07T14:03:53.744Z,23.67
2023-01-07T14:06:21.245Z,24.58
2023-01-07T14:08:59.874Z,24.50
2023-01-07T14:11:30.206Z,23.30
2023-01-07T14:14:26.338Z,25.15
2023-01-07T14:17:13.558Z,24.55
2023-01-07T14:20:02.213Z,24.60
2023-01-07T14:22:42.127Z,22.98
2023-01-07T14:25:24.196Z,23.67
2023-01-07T14:28:06.655Z,25.63
2023-01-07T14:33:22.617Z,21.98
2023-01-07T14:36:06.500Z,23.98
2023-01-07T14:38:33.800Z,24.40
2023-01-07T14:41:04.420Z,24.60
2023-01-07T14:43:41.164Z,25.23
2023-01-07T14:46:14.857Z,29.98
2023-01-07T14:48:43.105Z,27.60
2023-01-07T14:51:16.217Z,25.85
2023-01-07T14:54:20.247Z,25.35
2023-01-07T14:56:50.652Z,23.65
2023-01-07T14:59:56.705Z,25.25
2023-01-07T15:02:42.676Z,24.92
2023-01-07T15:05:12.917Z,26.60
2023-01-07T15:07:42.868Z,25.95
2023-01-07T15:10:42.588Z,26.75
2023-01-07T15:13:38.167Z,25.05
2023-01-07T15:16:11.676Z,24.77
2023-01-07T15:18:50.241Z,28.48
2023-01-07T15:21:36.076Z,28.27
2023-01-07T15:24:03.425Z,28.10
2023-01-07T15:26:50.060Z,27.85
2023-01-07T15:29:50.480Z,27.38
2023-01-07T15:32:26.349Z,27.88
2023-01-07T15:34:54.278Z,29.30
2023-01-07T15:37:21.846Z,27.45
2023-01-07T15:39:57.854Z,28.35
2023-01-07T15:42:27.402Z,28.95
2023-01-07T15:44:58.036Z,28.33
2023-01-07T15:47:33.034Z,27.65
2023-01-07T15:50:18.996Z,29.30
2023-01-07T15:52:55.506Z,28.40
2023-01-07T15:55:36.828Z,29.50
2023-01-07T15:58:13.291Z,29.85
2023-01-07T16:00:41.522Z,29.40
2023-01-07T16:03:16.006Z,31.92
2023-01-07T16:05:43.857Z,28.98
2023-01-07T16:08:26.697Z,32.08
2023-01-07T16:11:02.580Z,29.65
2023-01-07T16:13:31.093Z,28.58
2023-01-07T16:16:03.703Z,28.85
2023-01-07T16:18:34.457Z,28.67
2023-01-07T16:21:13.272Z,30.95
2023-01-07T16:23:41.351Z,30.80
2023-01-07T16:26:14.673Z,32.30
2023-01-07T16:28:50.435Z,27.67
2023-01-07T16:31:21.941Z,32.10
2023-01-07T16:33:52.748Z,23.25
2023-01-07T16:36:31.594Z,30.73
2023-01-07T16:39:03.359Z,29.75
2023-01-07T16:41:31.150Z,29.88
2023-01-07T16:44:01.634Z,29.38
2023-01-07T16:46:35.991Z,29.77
2023-01-07T16:49:09.487Z,37.30
2023-01-07T16:52:02.501Z,37.67
2023-01-07T16:54:39.909Z,32.50
2023-01-07T16:57:13.159Z,33.13
2023-01-07T16:59:55.585Z,37.75
2023-01-07T17:05:17.603Z,36.70
2023-01-07T17:08:00.491Z,33.90
2023-01-07T17:10:40.761Z,33.25
2023-01-07T17:13:31.964Z,31.63
2023-01-07T17:16:32.439Z,31.90
2023-01-07T17:19:47.536Z,31.98
2023-01-07T17:22:29.687Z,34.08
2023-01-07T17:25:16.230Z,44.55
2023-01-07T17:28:19.435Z,36.13
2023-01-07T17:30:49.348Z,32.30
2023-01-07T17:33:20.116Z,31.15
2023-01-07T17:35:50.270Z,33.85
2023-01-07T17:38:19.051Z,31.25
2023-01-07T17:40:48.970Z,34.53
2023-01-07T17:43:40.439Z,33.92
2023-01-07T17:46:13.893Z,35.10
2023-01-07T17:48:43.343Z,34.63
2023-01-07T17:51:12.222Z,32.88
2023-01-07T17:53:44.621Z,34.05
2023-01-07T17:56:12.007Z,34.83
2023-01-07T17:58:41.288Z,33.10
2023-01-07T18:01:12.307Z,35.90
2023-01-07T18:03:40.026Z,32.42
2023-01-07T18:06:17.542Z,33.92
2023-01-07T18:08:47.385Z,35.80
2023-01-07T18:11:36.481Z,36.17
2023-01-07T18:14:04.709Z,35.45
2023-01-07T18:16:32.209Z,38.67
2023-01-07T18:18:59.726Z,37.13
2023-01-07T18:21:27.103Z,35.53
2023-01-07T18:23:54.477Z,34.83
2023-01-07T18:26:22.422Z,36.22
2023-01-07T18:28:49.780Z,39.17
2023-01-07T18:31:17.225Z,39.38
2023-01-07T18:33:44.757Z,38.63
2023-01-07T18:36:12.194Z,39.20
2023-01-07T18:38:39.968Z,39.22
2023-01-07T18:41:07.350Z,41.60
2023-01-07T18:43:35.055Z,39.22
2023-01-07T18:46:07.913Z,41.85
2023-01-07T18:48:36.322Z,38.40
2023-01-07T18:51:10.198Z,40.00
2023-01-07T18:53:39.014Z,40.15
2023-01-07T18:56:11.483Z,39.63
2023-01-07T18:58:39.785Z,37.47
2023-01-07T19:01:09.400Z,38.00
2023-01-07T19:03:37.830Z,37.72
2023-01-07T19:06:09.514Z,38.83
2023-01-07T19:08:38.399Z,38.35
2023-01-07T19:11:11.367Z,37.97
2023-01-07T19:13:38.991Z,37.85
2023-01-07T19:16:08.713Z,39.95
2023-01-07T19:18:36.373Z,38.38
2023-01-07T19:21:08.888Z,37.80
2023-01-07T19:23:36.363Z,37.03
2023-01-07T19:26:06.839Z,39.38
2023-01-07T19:28:34.257Z,37.83
2023-01-07T19:31:06.377Z,40.13
2023-01-07T19:33:34.142Z,37.63
2023-01-07T19:36:09.425Z,40.35
2023-01-07T19:38:41.740Z,38.50
2023-01-07T19:41:14.930Z,40.75
2023-01-07T19:43:43.110Z,38.33
2023-01-07T19:46:11.613Z,38.95
2023-01-07T19:48:39.091Z,37.08
2023-01-07T19:51:07.488Z,41.05
2023-01-07T19:53:35.501Z,40.58
2023-01-07T19:56:05.988Z,38.80
2023-01-07T19:58:33.887Z,37.60
2023-01-07T20:01:06.256Z,39.75
2023-01-07T20:03:35.642Z,39.08
2023-01-07T20:06:09.124Z,42.28
2023-01-07T20:08:37.631Z,41.67
2023-01-07T20:11:05.946Z,39.22
2023-01-07T20:13:35.835Z,40.60
2023-01-07T20:16:08.213Z,37.97
2023-01-07T20:18:40.462Z,40.28
2023-01-07T20:23:36.366Z,37.10
2023-01-07T20:26:07.180Z,37.20
2023-01-07T20:28:35.541Z,38.08
2023-01-07T20:31:08.266Z,38.33
2023-01-07T20:33:35.719Z,36.92
2023-01-07T20:36:06.307Z,36.33
2023-01-07T20:38:35.416Z,37.58
2023-01-07T20:41:04.754Z,37.50
2023-01-07T20:43:34.875Z,37.60
2023-01-07T20:46:05.717Z,38.67
2023-01-07T20:48:33.419Z,39.63
2023-01-07T20:51:07.813Z,38.65
2023-01-07T20:53:36.351Z,44.20
2023-01-07T20:56:05.109Z,41.70
2023-01-07T20:58:35.055Z,41.42
2023-01-07T21:01:04.627Z,41.03
2023-01-07T21:03:32.059Z,38.50
2023-01-07T21:05:59.588Z,43.03
2023-01-07T21:08:27.325Z,43.15
2023-01-07T21:10:54.877Z,41.88
2023-01-07T21:13:23.856Z,51.83
2023-01-07T21:15:51.951Z,44.58
2023-01-07T21:18:19.719Z,41.15
2023-01-07T21:20:48.012Z,42.13
2023-01-07T21:23:15.415Z,42.75
2023-01-07T21:25:47.997Z,42.03
2023-01-07T21:28:15.871Z,42.25
2023-01-07T21:30:43.465Z,42.88
2023-01-07T21:33:10.868Z,40.67
2023-01-07T21:35:41.281Z,42.75
2023-01-07T21:38:08.713Z,43.00
2023-01-07T21:40:39.339Z,41.25
2023-01-07T21:43:06.735Z,42.13
2023-01-07T21:45:34.227Z,40.97
2023-01-07T21:48:01.749Z,44.75
2023-01-07T21:50:29.162Z,43.00
2023-01-07T21:52:56.565Z,42.30
2023-01-07T21:55:24.032Z,40.60
2023-01-07T21:57:51.384Z,45.28
2023-01-07T22:00:18.771Z,44.05
2023-01-07T22:02:46.104Z,41.58
2023-01-07T22:05:13.513Z,43.63
2023-01-07T22:07:40.880Z,44.55
2023-01-07T22:10:09.471Z,44.08
2023-01-07T22:12:36.877Z,44.67
2023-01-07T22:15:04.597Z,45.08
2023-01-07T22:17:32.056Z,43.42
2023-01-07T22:20:02.222Z,43.40
2023-01-07T22:22:29.642Z,41.08
2023-01-07T22:24:56.965Z,41.60
2023-01-07T22:27:24.367Z,43.17
2023-01-07T22:29:51.795Z,43.67
2023-01-07T22:32:19.120Z,42.28
2023-01-07T22:34:46.506Z,44.65
2023-01-07T22:37:17.722Z,44.08
2023-01-07T22:39:55.691Z,45.95
2023-01-07T22:42:25.361Z,43.78
2023-01-07T22:44:59.669Z,46.95
2023-01-07T22:47:31.809Z,43.35
2023-01-07T22:50:01.338Z,40.65
2023-01-07T22:52:28.735Z,41.45
2023-01-07T22:54:56.625Z,42.15
2023-01-07T22:57:24.338Z,43.67
2023-01-07T22:59:51.768Z,42.55
2023-01-07T23:02:19.132Z,43.05
2023-01-07T23:04:46.660Z,43.53
2023-01-07T23:07:14.134Z,43.80
2023-01-07T23:09:41.717Z,46.05
2023-01-07T23:12:11.064Z,46.55
2023-01-07T23:14:38.469Z,46.35
2023-01-07T23:17:05.955Z,45.85
2023-01-07T23:19:33.342Z,42.95
2023-01-07T23:22:00.723Z,44.45
2023-01-07T23:24:28.120Z,45.50
2023-01-07T23:26:56.998Z,47.00
2023-01-07T23:29:24.443Z,48.55
2023-01-07T23:31:52.098Z,47.83
2023-01-07T23:34:19.604Z,46.75
2023-01-07T23:36:47.055Z,46.47
2023-01-07T23:39:14.499Z,47.17
2023-01-07T23:41:41.929Z,46.58
2023-01-07T23:44:09.373Z,42.08
2023-01-07T23:46:36.920Z,43.17
2023-01-07T23:49:04.350Z,43.78
2023-01-07T23:51:31.733Z,45.63
2023-01-07T23:53:59.103Z,42.55
2023-01-07T23:56:26.554Z,41.55
2023-01-07T23:58:53.927Z,43.28
